WetterOnline ( https://www.wetteronline.de )

Wetter aktuell Weißenburg in Bayern

Aktuelles Wetter: Weißenburg (424m)

6-stündlich | Neueste Meldungen
Ortszeit Temperatur Wetter
Do, 19.09. 14:00 13.6° C wolkenlos
Do, 19.09. 8:00 3.3° C wolkenlos
Do, 19.09. 2:00 4.2° C wolkenlos
Mi, 18.09. 20:00 11.5° C wolkenlos
Mi, 18.09. 14:00 14.4° C leicht bewölkt
Mi, 18.09. 8:00 4.9° C wolkenlos
Mi, 18.09. 2:00 8.8° C wolkenlos
Di, 17.09. 20:00 14.8° C leicht bewölkt
Ortszeit Temperatur Wetter
Do, 19.09. 16:00 14.2° C leicht bewölkt
Do, 19.09. 15:50 14.2° C wolkig
Do, 19.09. 15:40 14.6° C wolkig
Do, 19.09. 15:30 14.1° C wolkig
Do, 19.09. 15:20 14.1° C wolkig
Do, 19.09. 15:10 14.3° C leicht bewölkt
Do, 19.09. 15:00 13.6° C leicht bewölkt
Do, 19.09. 14:30 13.5° C fast wolkenlos
Do, 19.09. 14:00 13.6° C wolkenlos
Do, 19.09. 13:30 12.9° C wolkenlos
Do, 19.09. 13:00 12.8° C leicht bewölkt
Ortszeit Relative Feuchte Sichtweite
Do, 19.09. 14:00 42% 16 km
Do, 19.09. 8:00 88% 30 km
Do, 19.09. 2:00 89% 45 km
Mi, 18.09. 20:00 54% 40 km
Mi, 18.09. 14:00 42% 16 km
Mi, 18.09. 8:00 91% 17 km
Mi, 18.09. 2:00 79% 35 km
Di, 17.09. 20:00 62% 30 km
Ortszeit Relative Feuchte Sichtweite
Do, 19.09. 16:00 37% 28 km
Do, 19.09. 15:50 37% -
Do, 19.09. 15:40 41% -
Do, 19.09. 15:30 39% 21 km
Do, 19.09. 15:20 39% -
Do, 19.09. 15:10 39% -
Do, 19.09. 15:00 38% 16 km
Do, 19.09. 14:30 40% 15 km
Do, 19.09. 14:00 42% 16 km
Do, 19.09. 13:30 44% 19 km
Do, 19.09. 13:00 47% 22 km
Ortszeit Niederschlagsmenge Niederschlagsart
Do, 19.09. 14:00 0.0 l/m2 in 6 Std. -
Do, 19.09. 8:00 0.0 l/m2 in 12 Std. -
Do, 19.09. 2:00 0.0 l/m2 in 6 Std. -
Mi, 18.09. 20:00 0.0 l/m2 in 12 Std. -
Mi, 18.09. 14:00 0.0 l/m2 in 6 Std. -
Mi, 18.09. 8:00 0.0 l/m2 in 12 Std. -
Mi, 18.09. 2:00 0.0 l/m2 in 6 Std. -
Di, 17.09. 20:00 0.7 l/m2 in 12 Std. -
Ortszeit Niederschlagsmenge Niederschlagsart
Do, 19.09. 16:00 0.0 l/m2 in 1 Std. -
Do, 19.09. 15:50 keine Meldung -
Do, 19.09. 15:40 keine Meldung -
Do, 19.09. 15:30 0.0 l/m2 in 1 Std. -
Do, 19.09. 15:20 keine Meldung -
Do, 19.09. 15:10 keine Meldung -
Do, 19.09. 15:00 0.0 l/m2 in 1 Std. -
Do, 19.09. 14:30 0.0 l/m2 in 1 Std. -
Do, 19.09. 14:00 0.0 l/m2 in 1 Std. -
Do, 19.09. 13:30 0.0 l/m2 in 1 Std. -
Do, 19.09. 13:00 0.0 l/m2 in 1 Std. -
Ortszeit Stärke Spitze Richtung
km/h Bft. km/h Grad Sektor
Do, 19.09. 14:00 14 3 25 20° N
Do, 19.09. 8:00 4 1 7 330° NW
Do, 19.09. 2:00 0 0 7 - -
Mi, 18.09. 20:00 6 1 24 10° N
Mi, 18.09. 14:00 13 3 24 340° N
Mi, 18.09. 8:00 4 1 11 230° SW
Mi, 18.09. 2:00 11 2 28 300° NW
Di, 17.09. 20:00 17 3 31 310° NW
Ortszeit Stärke Spitze Richtung
km/h Bft. km/h Grad Sektor
Do, 19.09. 16:00 13 3 22 30° NO
Do, 19.09. 15:50 13 3 - 30° NO
Do, 19.09. 15:40 11 2 - 10° N
Do, 19.09. 15:30 11 2 18 20° N
Do, 19.09. 15:20 11 2 - 20° N
Do, 19.09. 15:10 11 2 - 40° NO
Do, 19.09. 15:00 11 2 25 20° N
Do, 19.09. 14:30 14 3 25 20° N
Do, 19.09. 14:00 14 3 25 20° N
Do, 19.09. 13:30 13 3 20 10° N
Do, 19.09. 13:00 9 2 22 30° NO
Ortszeit Untergrenze Bedeckung Gattung
total tief tief mittel hoch
Do, 19.09. 14:00 - 0/8 0/8 - - -
Do, 19.09. 8:00 - 0/8 0/8 - - -
Do, 19.09. 2:00 - 0/8 0/8 - - -
Mi, 18.09. 20:00 - 0/8 0/8 - - -
Mi, 18.09. 14:00 8700 m 6/8 0/8 - - -
Mi, 18.09. 8:00 - 0/8 0/8 - - -
Mi, 18.09. 2:00 - 0/8 0/8 - - -
Di, 17.09. 20:00 1440 m 4/8 3/8 - - -
Ortszeit Bedeckungsgrad in Achtel und Wolkenuntergrenze
Do, 19.09. 16:00 7(9000m) 8(9000m)
Do, 19.09. 15:50 7(9000m) 8(9000m)
Do, 19.09. 15:40 6(9000m) 7(9000m) 8(10500m)
Do, 19.09. 15:30 3(9000m) 7(9000m) 7(10500m)
Do, 19.09. 15:20 3(9000m) 7(9000m)
Do, 19.09. 15:10 2(9000m) 5(10500m)
Do, 19.09. 15:00 4(9000m)
Do, 19.09. 14:30 2(9000m)
Do, 19.09. 14:00 keine Wolken
Do, 19.09. 13:30 keine Wolken
Do, 19.09. 13:00 1(1260m) 5(9000m)
Ortszeit Luftdruck NN (hPa) Tendenz (hPa in 3 Std.)
Do, 19.09. 14:00 1028 - 0,2
Do, 19.09. 8:00 1029 + 1,0
Do, 19.09. 2:00 1028 + 0,4
Mi, 18.09. 20:00 1025 + 0,5
Mi, 18.09. 14:00 1025 - 0,7
Mi, 18.09. 8:00 1026 + 1,0
Mi, 18.09. 2:00 1023 + 1,1
Di, 17.09. 20:00 1019 + 0,8
Ortszeit Luftdruck NN (hPa) Tendenz (hPa in 3 Std.)
Do, 19.09. 16:00 1028 - 0,5
Do, 19.09. 15:50 1028 keine Meldung
Do, 19.09. 15:40 1028 keine Meldung
Do, 19.09. 15:30 1028 - 0,6
Do, 19.09. 15:20 1028 keine Meldung
Do, 19.09. 15:10 1028 keine Meldung
Do, 19.09. 15:00 1028 - 0,6
Do, 19.09. 14:30 1028 - 0,4
Do, 19.09. 14:00 1028 - 0,2
Do, 19.09. 13:30 1029 - 0,1
Do, 19.09. 13:00 1029 0,0
Ortszeit Schneehöhe (cm)
Do, 19.09. 14:00 -
Do, 19.09. 8:00 -
Do, 19.09. 2:00 -
Mi, 18.09. 20:00 -
Mi, 18.09. 14:00 -
Mi, 18.09. 8:00 -
Mi, 18.09. 2:00 -
Di, 17.09. 20:00 -
Ortszeit Schneehöhe (cm)
Do, 19.09. 16:00 -
Do, 19.09. 15:50 -
Do, 19.09. 15:40 -
Do, 19.09. 15:30 -
Do, 19.09. 15:20 -
Do, 19.09. 15:10 -
Do, 19.09. 15:00 -
Do, 19.09. 14:30 -
Do, 19.09. 14:00 -
Do, 19.09. 13:30 -
Do, 19.09. 13:00 -
Link zu dieser Seite / Seite empfehlen

Das Wetter in ...